CheckWX is a tool to help pilots better visualize weather data.  It is not intended as a substitute for an official pre-flight weather briefing.

09:26:32 UTC

KDZJ METAR
Blairsville Airport
Blairsville, Georgia, USA
Current

32 mins ago

KDZJ 200855Z AUTO 09015G24KT 10SM -RA OVC014 05/04 A3021 RMK AO2 LTG DSNT W AND NW T00540036
Observed
Feb-20 @ 08:55 UTC
Wind
  • 090° at 15 KTS
  • Gusting to 24 KTS
Visibility
16,093 meters
Flight Rules
MVFR
Conditions
Light Rain
Cloud Levels
  • Overcast at 1,400' AGL
Temperature
C / 41°F
Dewpoint
C / 39°F
Humidity
93%
Altimeter
30.21" Hg
Pressure
1023.02 hPa
Previous

52 mins ago

KDZJ 200835Z AUTO 09013G20KT 040V120 10SM -DZ OVC014 06/03 A3020 RMK AO2 LTG DSNT W AND NW T00560035
Observed
Feb-20 @ 08:35 UTC
Wind
  • 090° at 13 KTS
  • Gusting to 20 KTS
Visibility
16,093 meters
Flight Rules
MVFR
Conditions
Light Drizzle
Cloud Levels
  • Overcast at 1,400' AGL
Temperature
C / 43°F
Dewpoint
C / 39°F
Humidity
87%
Altimeter
30.2" Hg
Pressure
1022.72 hPa
Previous

1 hour ago

KDZJ 200815Z AUTO 08007G18KT 340V140 10SM DZ OVC014 06/04 A3020 RMK AO2 LTG DSNT W T00590038
Observed
Feb-20 @ 08:15 UTC
Wind
  • 080° at 7 KTS
  • Gusting to 18 KTS
Visibility
16,093 meters
Flight Rules
MVFR
Conditions
Drizzle
Cloud Levels
  • Overcast at 1,400' AGL
Temperature
C / 43°F
Dewpoint
C / 39°F
Humidity
87%
Altimeter
30.2" Hg
Pressure
1022.72 hPa